Home   Weather   Nepal   Past weeks
Flag for Nepal

Past Weather in Nepal, Nepal — Yesterday and Last 2 Weeks

Currently: 81 °F. Scattered clouds. (Weather station: Kathmandu Airport, Nepal). See more current weather

Past Weather in Nepal — Graph

°F

Nepal Temperature Yesterday

Maximum temperature yesterday: 88 °F (at 2:45 pm)
Minimum temperature yesterday: 61 °F (at 5:45 am)
Average temperature yesterday: 75 °F

High & Low Weather Summary for the Past Weeks

 TemperatureHumidityPressure
High88 °F (Apr 21, 2:45 pm)94% (Apr 12, 4:45 am)30.21 "Hg (Apr 12, 4:45 am)
Low54 °F (Apr 12, 4:45 am)8% (Apr 21, 11:45 am)29.77 "Hg (Apr 19, 1:45 pm)
Average71 °F49%30.00 "Hg
* Reported Apr 7 5:45 pm — Apr 22 5:45 pm, Nepal. Weather by CustomWeather, © 2024

Note: Actual official high and low records may vary slightly from our data, if they occured in-between our weather recording intervals... More about our weather records

Nepal Weather History for the Previous 24 Hours

Scroll right to see more
 ConditionsComfort  
Time TempWeatherWind HumidityBarometerVisibility
5:45 pm
Mon, Apr 22
82 °FScattered clouds.10 mph19%29.89 "Hg4 mi
5:15 pm84 °FScattered clouds.12 mph19%29.89 "Hg4 mi
4:45 pm84 °FScattered clouds.12 mph18%29.89 "Hg4 mi
4:15 pm84 °FScattered clouds.15 mph18%29.89 "Hg4 mi
3:45 pm86 °FScattered clouds.14 mph14%29.89 "Hg4 mi
3:15 pm86 °FScattered clouds.15 mph15%29.89 "Hg4 mi
2:45 pm88 °FScattered clouds.8 mph17%29.89 "Hg4 mi
2:15 pm86 °FPassing clouds.10 mph17%29.92 "Hg4 mi
12:45 pm86 °FPartly sunny.14 mph17%29.92 "Hg4 mi
12:15 pm88 °FPartly sunny.13 mph16%29.92 "Hg4 mi
11:45 am86 °FPartly sunny.8 mph24%29.92 "Hg4 mi
11:15 am84 °FPartly sunny.6 mph23%29.92 "Hg4 mi
10:45 am82 °FPartly sunny.3 mph26%29.95 "Hg3 mi
10:15 am81 °FScattered clouds.No wind30%29.95 "Hg3 mi
9:45 am77 °FScattered clouds.2 mph32%29.95 "Hg3 mi
9:15 am77 °FHaze.No wind36%29.95 "Hg3 mi
8:45 am73 °FHaze.No wind38%29.95 "Hg3 mi
8:15 am70 °FScattered clouds.2 mph43%29.95 "Hg2 mi
7:15 am66 °FScattered clouds.5 mph52%29.92 "Hg2 mi
6:45 am64 °FScattered clouds.2 mph56%29.92 "Hg3 mi
6:15 am63 °FPassing clouds.3 mph59%29.92 "Hg2 mi
5:45 am63 °FPassing clouds.2 mph59%29.89 "Hg2 mi
5:15 am63 °FPassing clouds.5 mph56%29.89 "Hg4 mi
4:45 am63 °FPassing clouds.2 mph56%29.89 "Hg4 mi
4:15 am64 °FPassing clouds.2 mph52%29.86 "Hg4 mi
3:45 am64 °FPassing clouds.3 mph52%29.86 "Hg4 mi
3:15 am64 °FPassing clouds.5 mph52%29.86 "Hg4 mi
2:45 am64 °FPassing clouds.2 mph52%29.89 "Hg4 mi
2:15 am64 °FPassing clouds.3 mph49%29.89 "Hg4 mi
1:45 am64 °FPassing clouds.5 mph49%29.89 "Hg4 mi
1:15 am66 °FPassing clouds.3 mph46%29.89 "Hg4 mi
12:45 am66 °FPassing clouds.5 mph46%29.89 "Hg4 mi
12:15 am66 °FPassing clouds.5 mph49%29.89 "Hg4 mi
11:45 pm
Sun, Apr 21
68 °FPassing clouds.3 mph43%29.89 "Hg4 mi
11:15 pm70 °FPassing clouds.5 mph40%29.89 "Hg4 mi
10:45 pm68 °FPassing clouds.5 mph43%29.89 "Hg4 mi
10:15 pm70 °FPassing clouds.3 mph40%29.92 "Hg4 mi
9:45 pm72 °FPassing clouds.3 mph38%29.89 "Hg4 mi
9:15 pm73 °FPassing clouds.3 mph36%29.89 "Hg4 mi
8:45 pm75 °FPassing clouds.5 mph34%29.92 "Hg4 mi
8:15 pm77 °FPassing clouds.5 mph28%29.89 "Hg4 mi
7:45 pm79 °FPassing clouds.6 mph24%29.89 "Hg4 mi
7:15 pm79 °FPassing clouds.7 mph24%29.89 "Hg4 mi
Weather by CustomWeather, © 2024

See weather overview